Time;durP1;ratioP1;P1;durP2;ratioP2;P2;SDS_P1;SDS_P2;PMS_P1;PMS_P2;Temp;Humidity;BMP_temperature;BMP_pressure;BME280_temperature;BME280_humidity;BME280_pressure;Samples;Min_cycle;Max_cycle;Signal;HPM_P1;HPM_P2
2022/03/03 00:01:54;;;;;;;80.93;36.88;;;2.40;99.90;;;;;;5015738;28;20033;-84
2022/03/03 00:04:20;;;;;;;79.57;36.65;;;2.40;99.90;;;;;;5015629;28;20129;-84
2022/03/03 00:06:46;;;;;;;74.85;35.28;;;2.40;99.90;;;;;;5015830;28;20046;-84
2022/03/03 00:09:11;;;;;;;85.68;38.97;;;2.30;99.90;;;;;;5015651;28;20050;-84
2022/03/03 00:11:38;;;;;;;79.10;35.42;;;2.30;99.90;;;;;;5015542;28;20052;-84
2022/03/03 00:14:04;;;;;;;77.80;37.08;;;2.30;99.90;;;;;;5015810;28;20065;-84
2022/03/03 00:16:30;;;;;;;83.88;37.17;;;2.30;99.90;;;;;;5015792;28;20500;-83
2022/03/03 00:18:56;;;;;;;81.32;35.55;;;2.30;99.90;;;;;;5015431;28;20049;-84
2022/03/03 00:21:22;;;;;;;77.22;34.72;;;2.30;99.90;;;;;;5015925;28;20125;-84
2022/03/03 00:23:47;;;;;;;79.93;36.15;;;2.30;99.90;;;;;;5015754;28;20568;-84
2022/03/03 00:26:13;;;;;;;75.40;35.58;;;2.30;99.90;;;;;;5015555;28;20416;-84
2022/03/03 00:28:39;;;;;;;74.70;35.28;;;2.20;99.90;;;;;;5015576;28;20440;-84
2022/03/03 00:31:05;;;;;;;82.93;35.10;;;2.30;99.90;;;;;;5015432;28;20100;-84
2022/03/03 00:33:31;;;;;;;73.50;34.58;;;2.20;99.90;;;;;;5015671;28;20111;-84
2022/03/03 00:35:56;;;;;;;77.30;35.10;;;2.20;99.90;;;;;;5015447;28;20396;-84
2022/03/03 00:38:22;;;;;;;69.68;34.15;;;2.20;99.90;;;;;;5015486;28;20033;-83
2022/03/03 00:40:48;;;;;;;78.18;35.22;;;2.20;99.90;;;;;;5015311;28;20042;-83
2022/03/03 00:43:13;;;;;;;74.82;34.50;;;2.20;99.90;;;;;;5015590;28;20077;-83
2022/03/03 00:45:39;;;;;;;76.40;35.08;;;2.20;99.90;;;;;;5015228;28;20393;-83
2022/03/03 00:48:05;;;;;;;81.78;36.13;;;2.10;99.90;;;;;;5015653;28;20099;-83
2022/03/03 00:50:31;;;;;;;73.70;33.42;;;2.10;99.90;;;;;;5015384;28;20053;-83
2022/03/03 00:52:57;;;;;;;77.78;34.35;;;2.10;99.90;;;;;;5018759;28;20049;-83
2022/03/03 00:55:24;;;;;;;78.38;34.08;;;2.10;99.90;;;;;;5018767;28;20049;-83
2022/03/03 00:57:50;;;;;;;78.03;35.58;;;2.10;99.90;;;;;;5018956;28;20037;-83
2022/03/03 01:00:16;;;;;;;76.80;35.25;;;2.00;99.90;;;;;;5018708;28;20401;-83
2022/03/03 01:02:41;;;;;;;78.78;35.92;;;2.10;99.90;;;;;;5036464;28;20048;-83
2022/03/03 01:05:08;;;;;;;76.00;34.92;;;2.00;99.90;;;;;;5019024;28;20554;-83
2022/03/03 01:07:34;;;;;;;77.00;34.47;;;2.00;99.90;;;;;;5018869;28;20121;-83
2022/03/03 01:10:00;;;;;;;78.53;36.25;;;1.90;99.90;;;;;;5036187;28;20132;-83
2022/03/03 01:12:25;;;;;;;77.97;33.45;;;2.00;99.90;;;;;;5018478;28;20515;-83
2022/03/03 01:14:51;;;;;;;69.22;33.25;;;1.90;99.90;;;;;;5018762;28;20125;-83
2022/03/03 01:17:17;;;;;;;72.32;34.08;;;1.90;99.90;;;;;;5036243;28;20156;-83
2022/03/03 01:19:43;;;;;;;72.53;33.92;;;1.90;99.90;;;;;;5036184;28;20111;-83
2022/03/03 01:22:09;;;;;;;78.68;35.80;;;1.80;99.90;;;;;;5036170;28;20045;-83
2022/03/03 01:24:35;;;;;;;85.60;36.25;;;1.80;99.90;;;;;;5018471;28;20041;-83
2022/03/03 01:27:01;;;;;;;85.28;37.03;;;1.80;99.90;;;;;;5018694;28;20068;-83
2022/03/03 01:29:26;;;;;;;91.20;40.13;;;1.70;99.90;;;;;;5018198;28;20139;-83
2022/03/03 01:31:52;;;;;;;85.18;36.55;;;1.70;99.90;;;;;;5036153;28;20133;-83
2022/03/03 01:34:18;;;;;;;76.32;34.00;;;1.60;99.90;;;;;;5018450;28;20041;-83
2022/03/03 01:36:43;;;;;;;74.07;35.58;;;1.60;99.90;;;;;;5018392;28;20049;-83
2022/03/03 01:39:09;;;;;;;65.65;31.27;;;1.50;99.90;;;;;;5017957;28;20081;-83
2022/03/03 01:41:35;;;;;;;74.95;32.80;;;1.50;99.90;;;;;;5017937;28;20076;-83
2022/03/03 01:44:01;;;;;;;69.25;33.50;;;1.50;99.90;;;;;;5017984;28;20049;-83
2022/03/03 01:46:27;;;;;;;72.57;32.97;;;1.50;99.90;;;;;;5017793;28;20137;-83
2022/03/03 01:48:53;;;;;;;69.70;31.73;;;1.50;99.90;;;;;;5018122;28;20400;-83
2022/03/03 01:51:18;;;;;;;77.70;34.47;;;1.50;99.90;;;;;;5018102;28;20041;-83
2022/03/03 01:53:44;;;;;;;71.63;32.08;;;1.50;99.90;;;;;;5017672;28;20491;-83
2022/03/03 01:56:10;;;;;;;69.35;35.03;;;1.50;99.90;;;;;;5017691;28;20087;-83
2022/03/03 01:58:40;;;;;;;66.38;32.05;;;1.40;99.90;;;;;;5017635;28;20473;-83
2022/03/03 02:01:06;;;;;;;69.30;32.15;;;1.40;99.90;;;;;;5017926;28;20056;-83
2022/03/03 02:03:32;;;;;;;78.03;33.58;;;1.40;99.90;;;;;;5016808;28;20045;-83
2022/03/03 02:05:58;;;;;;;69.30;32.38;;;1.40;99.90;;;;;;5017818;28;20048;-83
2022/03/03 02:08:23;;;;;;;79.90;34.20;;;1.40;99.90;;;;;;5017432;28;20041;-83
2022/03/03 02:10:51;;;;;;;61.60;30.77;;;1.40;99.90;;;;;;5017306;28;20044;-83
2022/03/03 02:13:17;;;;;;;71.00;33.92;;;1.30;99.90;;;;;;5017630;28;20042;-83
2022/03/03 02:15:54;;;;;;;74.20;32.50;;;1.30;99.90;;;;;;5017609;28;20124;-83
2022/03/03 02:18:21;;;;;;;68.43;32.63;;;1.30;99.90;;;;;;5017619;28;20397;-83
2022/03/03 02:20:48;;;;;;;69.57;34.40;;;1.30;99.90;;;;;;5017347;28;20040;-83
2022/03/03 02:23:14;;;;;;;72.85;31.20;;;1.30;99.90;;;;;;5017136;28;20053;-83
2022/03/03 02:25:40;;;;;;;69.95;34.17;;;1.30;99.90;;;;;;5017080;28;20401;-83
2022/03/03 02:28:06;;;;;;;72.32;35.45;;;1.30;99.90;;;;;;5017301;28;20045;-83
2022/03/03 02:30:32;;;;;;;68.60;33.63;;;1.30;99.90;;;;;;5016993;28;20138;-83
2022/03/03 02:32:58;;;;;;;68.80;32.28;;;1.20;99.90;;;;;;5017171;28;20442;-83
2022/03/03 02:35:24;;;;;;;74.65;33.80;;;1.20;99.90;;;;;;5016791;28;20435;-84
2022/03/03 02:37:50;;;;;;;77.22;34.35;;;1.20;99.90;;;;;;5017099;28;20045;-83
2022/03/03 02:40:20;;;;;;;68.30;33.17;;;1.20;99.90;;;;;;5016920;28;20400;-84
2022/03/03 02:42:54;;;;;;;64.57;32.72;;;1.10;99.90;;;;;;5016907;28;20045;-84
2022/03/03 02:45:20;;;;;;;68.28;31.40;;;1.10;99.90;;;;;;5016646;28;20116;-84
2022/03/03 02:47:48;;;;;;;64.88;32.55;;;1.10;99.90;;;;;;5016554;28;20045;-83
2022/03/03 02:50:16;;;;;;;72.18;32.22;;;1.00;99.90;;;;;;5016564;28;20400;-83
2022/03/03 02:52:42;;;;;;;63.78;31.05;;;1.00;99.90;;;;;;5016678;28;20083;-84
2022/03/03 02:55:08;;;;;;;68.90;32.78;;;1.00;99.90;;;;;;5016962;28;20037;-83
2022/03/03 03:00:18;;;;;;;64.45;33.45;;;1.00;99.90;;;;;;5016612;28;20103;-83
2022/03/03 03:02:44;;;;;;;62.75;30.33;;;1.00;99.90;;;;;;5016493;28;20037;-83
2022/03/03 03:05:10;;;;;;;65.95;33.50;;;1.00;99.90;;;;;;5016502;28;20507;-83
2022/03/03 03:07:36;;;;;;;58.65;29.30;;;1.00;99.90;;;;;;5016294;28;20084;-83
2022/03/03 03:10:06;;;;;;;64.15;31.52;;;1.10;99.90;;;;;;5016448;28;20087;-83
2022/03/03 03:12:32;;;;;;;66.22;32.55;;;1.00;99.90;;;;;;5016632;28;20053;-83
2022/03/03 03:14:58;;;;;;;69.53;32.25;;;1.10;99.90;;;;;;5016297;28;20128;-83
2022/03/03 03:17:24;;;;;;;65.70;31.77;;;1.10;99.90;;;;;;5016232;28;20390;-83
2022/03/03 03:19:50;;;;;;;65.88;31.20;;;1.00;99.90;;;;;;5016243;28;20041;-83
2022/03/03 03:22:15;;;;;;;64.82;29.52;;;1.00;99.90;;;;;;5016373;28;20038;-83
2022/03/03 03:24:41;;;;;;;71.40;32.17;;;1.00;99.90;;;;;;5016283;28;20546;-83
2022/03/03 03:27:06;;;;;;;68.80;31.88;;;1.10;99.90;;;;;;5016244;28;20041;-83
2022/03/03 03:29:32;;;;;;;74.35;33.53;;;1.10;99.90;;;;;;5015982;28;20049;-83
2022/03/03 03:31:58;;;;;;;73.60;32.20;;;1.10;99.90;;;;;;5016074;28;20041;-83
2022/03/03 03:34:24;;;;;;;75.15;34.10;;;1.10;99.90;;;;;;5016297;28;20052;-83
2022/03/03 03:36:50;;;;;;;80.35;34.50;;;1.10;99.90;;;;;;5016079;28;20400;-83
2022/03/03 03:39:15;;;;;;;69.65;33.90;;;1.10;99.90;;;;;;5016129;28;20137;-83
2022/03/03 03:41:43;;;;;;;71.72;35.95;;;1.10;99.90;;;;;;5016048;28;20052;-83
2022/03/03 03:44:09;;;;;;;71.13;36.88;;;1.10;99.90;;;;;;5015826;28;20053;-83
2022/03/03 03:46:35;;;;;;;67.80;32.20;;;1.10;99.90;;;;;;5015631;28;20100;-83
2022/03/03 03:49:01;;;;;;;73.95;33.78;;;1.10;99.90;;;;;;5015775;28;20057;-83
2022/03/03 03:51:27;;;;;;;74.70;35.55;;;1.10;99.90;;;;;;5015971;28;20041;-83
2022/03/03 03:53:53;;;;;;;70.90;33.97;;;1.10;99.90;;;;;;5015796;28;20045;-83
2022/03/03 03:56:18;;;;;;;67.60;32.83;;;1.00;99.90;;;;;;5015776;28;20128;-83
2022/03/03 03:58:44;;;;;;;67.03;31.60;;;1.10;99.90;;;;;;5015743;28;20034;-83
2022/03/03 04:01:09;;;;;;;74.90;35.08;;;1.00;99.90;;;;;;5015976;28;20045;-83
2022/03/03 04:03:35;;;;;;;69.63;34.38;;;1.00;99.90;;;;;;5033429;28;20456;-83
2022/03/03 04:06:01;;;;;;;65.88;31.33;;;0.90;99.90;;;;;;5015724;28;20045;-83
2022/03/03 04:08:26;;;;;;;68.22;32.30;;;0.90;99.90;;;;;;5015821;28;20052;-83
2022/03/03 04:10:52;;;;;;;71.70;34.25;;;0.90;99.90;;;;;;5033122;28;20049;-83
2022/03/03 04:13:18;;;;;;;68.35;35.67;;;0.80;99.90;;;;;;5033463;28;20480;-83
2022/03/03 04:15:43;;;;;;;68.65;33.20;;;0.80;99.90;;;;;;5033307;28;20412;-83
2022/03/03 04:18:10;;;;;;;67.93;33.08;;;0.80;99.90;;;;;;5015548;28;20120;-83
2022/03/03 04:20:36;;;;;;;73.78;35.83;;;0.80;99.90;;;;;;5015574;28;20120;-83
2022/03/03 04:23:02;;;;;;;62.72;31.55;;;0.80;99.90;;;;;;5015942;28;20136;-83
2022/03/03 04:25:28;;;;;;;68.47;32.50;;;0.80;99.90;;;;;;5015588;28;20048;-82
2022/03/03 04:27:53;;;;;;;64.38;32.80;;;0.80;99.90;;;;;;5019440;28;20045;-83
2022/03/03 04:30:19;;;;;;;66.78;32.25;;;0.80;99.90;;;;;;5019342;28;20060;-83
2022/03/03 04:32:45;;;;;;;66.45;33.17;;;0.80;99.90;;;;;;5019540;28;20393;-83
2022/03/03 04:35:10;;;;;;;67.45;31.23;;;0.80;99.90;;;;;;5019721;28;20037;-83
2022/03/03 04:37:38;;;;;;;65.70;32.58;;;0.80;99.90;;;;;;5019309;28;20389;-83
2022/03/03 04:40:04;;;;;;;61.97;32.80;;;0.70;99.90;;;;;;5036952;28;20081;-83
2022/03/03 04:42:30;;;;;;;62.42;30.63;;;0.70;99.90;;;;;;5037183;28;20128;-83
2022/03/03 04:44:56;;;;;;;59.45;30.52;;;0.70;99.90;;;;;;5015488;28;20138;-83
2022/03/03 04:47:21;;;;;;;57.65;30.27;;;0.70;99.90;;;;;;5017164;28;20065;-83
2022/03/03 04:49:47;;;;;;;56.17;30.92;;;0.70;99.90;;;;;;5015665;28;20085;-83
2022/03/03 04:52:13;;;;;;;63.58;32.47;;;0.70;99.90;;;;;;5016960;28;20372;-83
2022/03/03 04:54:39;;;;;;;67.55;31.65;;;0.70;99.90;;;;;;5016891;28;20108;-82
2022/03/03 04:57:04;;;;;;;65.13;32.55;;;0.70;99.90;;;;;;5015442;28;20050;-83
2022/03/03 04:59:30;;;;;;;61.88;30.80;;;0.60;99.90;;;;;;5015718;28;20081;-83
2022/03/03 05:01:56;;;;;;;63.72;30.95;;;0.60;99.90;;;;;;5016712;28;20085;-83
2022/03/03 05:04:22;;;;;;;64.75;31.50;;;0.60;99.90;;;;;;5016727;28;20084;-83
2022/03/03 05:06:49;;;;;;;62.20;30.83;;;0.60;99.90;;;;;;5015494;28;20482;-83
2022/03/03 05:09:15;;;;;;;59.30;29.40;;;0.50;99.90;;;;;;5016327;28;20046;-83
2022/03/03 05:11:42;;;;;;;63.72;31.60;;;0.50;99.90;;;;;;5015301;28;20129;-83
2022/03/03 05:14:08;;;;;;;57.47;30.45;;;0.50;99.90;;;;;;5015211;28;20042;-83
2022/03/03 05:16:34;;;;;;;61.08;30.75;;;0.50;99.90;;;;;;5015093;28;20053;-83
2022/03/03 05:19:00;;;;;;;60.53;31.05;;;0.50;99.90;;;;;;5016484;28;20053;-83
2022/03/03 05:21:26;;;;;;;56.08;30.02;;;0.50;99.90;;;;;;5015247;28;20125;-83
2022/03/03 05:23:53;;;;;;;59.47;30.90;;;0.50;99.90;;;;;;5016384;28;20136;-83
2022/03/03 05:26:19;;;;;;;58.50;31.40;;;0.40;99.90;;;;;;5015188;28;20042;-83
2022/03/03 05:28:45;;;;;;;56.58;30.63;;;0.50;99.90;;;;;;5014987;28;20061;-83
2022/03/03 05:31:10;;;;;;;59.75;31.30;;;0.40;99.90;;;;;;5014898;28;20049;-83
2022/03/03 05:33:37;;;;;;;59.25;30.75;;;0.40;99.90;;;;;;5016182;28;20046;-83
2022/03/03 05:36:05;;;;;;;62.80;30.48;;;0.40;99.90;;;;;;5015935;28;20046;-83
2022/03/03 05:38:33;;;;;;;64.47;31.77;;;0.40;99.90;;;;;;5013929;28;20124;-82
2022/03/03 05:40:59;;;;;;;59.05;29.88;;;0.30;99.90;;;;;;5014749;28;20124;-83
2022/03/03 05:43:26;;;;;;;56.83;30.67;;;0.30;99.90;;;;;;5015983;28;20045;-83
2022/03/03 05:45:53;;;;;;;57.88;30.25;;;0.30;99.90;;;;;;5027763;28;20050;-83
2022/03/03 05:48:19;;;;;;;63.72;31.10;;;0.30;99.90;;;;;;5018216;28;20153;-83
2022/03/03 05:50:46;;;;;;;60.00;30.30;;;0.30;99.90;;;;;;5017870;28;20132;-83
2022/03/03 05:53:12;;;;;;;57.45;31.55;;;0.30;99.90;;;;;;5018130;28;20070;-83
2022/03/03 05:55:43;;;;;;;62.05;31.17;;;0.40;99.90;;;;;;5017967;28;20056;-83
2022/03/03 05:58:15;;;;;;;60.55;32.03;;;0.40;99.90;;;;;;5018043;28;20104;-82
2022/03/03 06:00:47;;;;;;;58.65;29.73;;;0.40;99.90;;;;;;5017838;28;20049;-83
2022/03/03 06:03:14;;;;;;;63.72;30.10;;;0.40;99.90;;;;;;5017701;28;20132;-83
2022/03/03 06:05:43;;;;;;;58.85;31.73;;;0.50;99.90;;;;;;5017450;28;20100;-83
2022/03/03 06:08:16;;;;;;;58.85;30.08;;;0.40;99.90;;;;;;5017192;28;20121;-83
2022/03/03 06:10:49;;;;;;;59.83;30.63;;;0.50;99.90;;;;;;5033966;28;20081;-83
2022/03/03 06:13:28;;;;;;;57.70;29.67;;;0.50;99.90;;;;;;5017102;28;20433;-82
2022/03/03 06:15:54;;;;;;;52.47;29.17;;;0.50;99.90;;;;;;5017404;28;20041;-82
2022/03/03 06:18:25;;;;;;;54.10;27.17;;;0.50;99.90;;;;;;5017256;28;20045;-83
2022/03/03 06:20:51;;;;;;;58.38;29.90;;;0.50;99.90;;;;;;5034932;28;20077;-82
2022/03/03 06:23:18;;;;;;;60.13;31.75;;;0.50;99.90;;;;;;5035009;28;20047;-82
2022/03/03 06:25:44;;;;;;;63.28;32.13;;;0.40;99.90;;;;;;5016987;28;20108;-83
2022/03/03 06:28:10;;;;;;;61.95;30.30;;;0.40;99.90;;;;;;5017140;28;20037;-83
2022/03/03 06:30:36;;;;;;;66.38;33.63;;;0.50;99.90;;;;;;5016818;28;20413;-83
2022/03/03 06:33:03;;;;;;;60.35;32.42;;;0.40;99.90;;;;;;5017076;28;20226;-83
2022/03/03 06:35:35;;;;;;;58.55;28.35;;;0.40;99.90;;;;;;5016826;28;20128;-83
2022/03/03 06:38:04;;;;;;;63.83;31.17;;;0.40;99.90;;;;;;5016952;28;20045;-83
2022/03/03 06:40:29;;;;;;;55.30;31.33;;;0.40;99.90;;;;;;5016824;28;20292;-83
2022/03/03 06:43:00;;;;;;;60.10;29.95;;;0.40;99.90;;;;;;5016617;28;20052;-83
2022/03/03 06:45:27;;;;;;;61.80;32.10;;;0.40;99.90;;;;;;5016470;28;20045;-83
2022/03/03 06:47:57;;;;;;;66.78;32.63;;;0.40;99.90;;;;;;5017353;28;20053;-83
2022/03/03 06:50:23;;;;;;;59.03;29.25;;;0.40;99.90;;;;;;5016165;28;20455;-83
2022/03/03 06:52:50;;;;;;;58.78;29.80;;;0.40;99.90;;;;;;5016870;28;20041;-83
2022/03/03 06:55:20;;;;;;;64.93;31.88;;;0.50;99.90;;;;;;5016743;28;20481;-83
2022/03/03 06:57:51;;;;;;;65.60;32.63;;;0.50;99.90;;;;;;5034136;28;20045;-83
2022/03/03 07:00:21;;;;;;;62.42;32.40;;;0.60;99.90;;;;;;5016614;28;20377;-83
2022/03/03 07:02:48;;;;;;;61.03;31.52;;;0.60;99.90;;;;;;5016607;28;20132;-84
2022/03/03 07:05:17;;;;;;;62.67;32.20;;;0.70;99.90;;;;;;5016296;28;20045;-83
2022/03/03 07:07:45;;;;;;;63.20;33.47;;;0.70;99.90;;;;;;5034143;28;20128;-83
2022/03/03 07:10:12;;;;;;;64.07;33.10;;;0.70;99.90;;;;;;5033982;28;20045;-84
2022/03/03 07:12:39;;;;;;;67.18;33.22;;;0.80;99.90;;;;;;5033856;28;20378;-84
2022/03/03 07:15:05;;;;;;;65.18;32.45;;;0.80;99.90;;;;;;5016433;28;20047;-85
2022/03/03 07:17:47;;;;;;;57.25;32.20;;;0.90;99.90;;;;;;5016261;28;20045;-83
2022/03/03 07:20:17;;;;;;;65.22;32.90;;;0.90;99.90;;;;;;5016418;28;20055;-83
2022/03/03 07:23:08;;;;;;;61.47;31.27;;;1.00;99.90;;;;;;5016339;28;20064;-82
2022/03/03 07:25:47;;;;;;;65.63;32.03;;;1.10;99.90;;;;;;5033640;28;20403;-83
2022/03/03 07:28:13;;;;;;;64.22;32.25;;;1.10;99.90;;;;;;5033666;28;20589;-83
2022/03/03 07:30:43;;;;;;;67.45;33.42;;;1.20;99.90;;;;;;5015931;28;20496;-84
2022/03/03 07:33:18;;;;;;;62.63;31.90;;;1.30;99.90;;;;;;5015868;28;20041;-84
2022/03/03 07:35:48;;;;;;;67.47;33.03;;;1.40;99.90;;;;;;5015985;28;20041;-83
2022/03/03 07:38:19;;;;;;;66.32;34.20;;;1.40;99.90;;;;;;5015878;28;20095;-85
2022/03/03 07:40:47;;;;;;;73.53;32.45;;;1.50;99.90;;;;;;5033717;28;20046;-83
2022/03/03 07:43:14;;;;;;;59.85;32.15;;;1.60;99.90;;;;;;5015819;28;20045;-83
2022/03/03 07:45:41;;;;;;;66.70;33.10;;;1.70;99.90;;;;;;5015542;28;20057;-83
2022/03/03 07:48:07;;;;;;;66.45;34.65;;;1.70;99.90;;;;;;5016024;28;20085;-84
2022/03/03 07:50:39;;;;;;;67.78;34.15;;;1.80;99.90;;;;;;5015698;28;20127;-83
2022/03/03 07:53:07;;;;;;;66.88;32.70;;;1.90;99.90;;;;;;5015989;28;20041;-83
2022/03/03 07:55:38;;;;;;;63.00;32.25;;;1.90;99.90;;;;;;5015651;28;20053;-84
2022/03/03 07:58:06;;;;;;;69.22;33.47;;;2.00;99.90;;;;;;5015801;28;20500;-83
2022/03/03 08:00:34;;;;;;;67.03;33.30;;;2.10;99.90;;;;;;5015824;28;20136;-83
2022/03/03 08:03:04;;;;;;;62.97;33.40;;;2.20;99.90;;;;;;5019656;28;20076;-83
2022/03/03 08:05:31;;;;;;;65.78;32.92;;;2.30;99.90;;;;;;5019897;28;20485;-83
2022/03/03 08:08:00;;;;;;;60.30;32.05;;;2.40;99.90;;;;;;5018122;28;20041;-83
2022/03/03 08:10:27;;;;;;;62.63;30.27;;;2.40;99.90;;;;;;5008086;28;20042;-84
2022/03/03 08:12:58;;;;;;;61.92;33.47;;;2.50;99.90;;;;;;4980468;28;20070;-84
2022/03/03 08:15:24;;;;;;;60.38;31.42;;;2.60;99.90;;;;;;4980364;28;20089;-85
2022/03/03 08:17:51;;;;;;;59.03;31.10;;;2.70;99.90;;;;;;4997551;28;20458;-85
2022/03/03 08:20:18;;;;;;;57.58;31.02;;;2.90;99.90;;;;;;4997502;28;20129;-90
2022/03/03 08:22:44;;;;;;;60.40;30.38;;;3.00;99.90;;;;;;4980319;28;20136;-88
2022/03/03 08:25:10;;;;;;;57.20;30.75;;;3.10;99.90;;;;;;4980113;28;20085;-86
2022/03/03 08:27:37;;;;;;;59.17;30.17;;;3.20;99.90;;;;;;4980238;28;20069;-86
2022/03/03 08:30:05;;;;;;;47.92;25.85;;;3.30;99.90;;;;;;4979880;28;20090;-86
2022/03/03 08:32:36;;;;;;;52.55;28.75;;;3.40;99.90;;;;;;4979976;28;20042;-88
2022/03/03 08:35:19;;;;;;;49.30;27.33;;;3.50;99.90;;;;;;4990866;28;20493;-90
2022/03/03 08:37:53;;;;;;;54.38;29.65;;;3.70;99.90;;;;;;4999432;28;20073;-86
2022/03/03 08:40:21;;;;;;;57.50;30.48;;;3.80;99.90;;;;;;4998928;28;20050;-90
2022/03/03 08:42:49;;;;;;;51.17;29.63;;;3.90;99.90;;;;;;4999068;28;20477;-86
2022/03/03 08:45:19;;;;;;;58.90;31.65;;;4.00;99.90;;;;;;4998847;28;20049;-89
2022/03/03 08:47:54;;;;;;;50.55;27.67;;;4.10;99.90;;;;;;4999357;28;20096;-87
2022/03/03 08:50:21;;;;;;;49.97;28.17;;;4.20;99.90;;;;;;4998961;28;20073;-89
2022/03/03 08:52:47;;;;;;;54.83;30.13;;;4.40;99.90;;;;;;4999197;28;20079;-89
2022/03/03 08:55:13;;;;;;;52.17;28.55;;;4.40;99.90;;;;;;4998732;28;20049;-90
2022/03/03 08:57:41;;;;;;;44.97;25.00;;;4.50;99.90;;;;;;4998829;28;20042;-91
2022/03/03 09:00:09;;;;;;;58.55;30.65;;;4.50;99.90;;;;;;4999394;28;20073;-91
2022/03/03 09:02:35;;;;;;;50.33;27.33;;;4.70;99.90;;;;;;4998376;28;20046;-91
2022/03/03 09:05:01;;;;;;;50.47;28.08;;;4.80;99.90;;;;;;4998890;28;20044;-92
2022/03/03 09:07:26;;;;;;;54.38;28.65;;;4.90;99.90;;;;;;4999289;28;20091;-90
2022/03/03 09:09:52;;;;;;;49.08;25.58;;;5.00;99.90;;;;;;4998734;28;20408;-89
2022/03/03 09:12:18;;;;;;;47.72;25.95;;;5.10;99.90;;;;;;4998639;28;20044;-89
2022/03/03 09:14:43;;;;;;;45.45;25.63;;;5.10;99.90;;;;;;4998527;28;20046;-90
2022/03/03 09:17:09;;;;;;;47.85;26.45;;;5.20;99.90;;;;;;4998490;28;20049;-92
2022/03/03 09:19:36;;;;;;;44.70;24.58;;;5.30;99.90;;;;;;4998254;28;20042;-92
2022/03/03 09:22:03;;;;;;;47.53;25.45;;;5.30;99.90;;;;;;4998938;28;20050;-91
2022/03/03 09:24:29;;;;;;;42.97;24.00;;;5.40;99.90;;;;;;4998850;28;20048;-92
2022/03/03 09:26:55;;;;;;;44.97;25.00;;;5.50;99.90;;;;;;4998529;28;20543;-90
2022/03/03 09:29:21;;;;;;;46.55;24.65;;;5.60;99.90;;;;;;4997785;28;20045;-89
2022/03/03 09:31:47;;;;;;;41.83;23.33;;;5.70;99.90;;;;;;4998397;28;20049;-93
2022/03/03 09:34:13;;;;;;;37.28;22.42;;;5.80;99.90;;;;;;4998026;28;20050;-90
2022/03/03 09:36:39;;;;;;;40.35;24.63;;;5.90;99.90;;;;;;4998374;28;20049;-90
2022/03/03 09:39:05;;;;;;;43.78;26.58;;;6.00;99.90;;;;;;4998043;28;20137;-90
2022/03/03 09:41:31;;;;;;;40.60;24.67;;;6.10;99.90;;;;;;4998501;28;20516;-89
2022/03/03 09:43:57;;;;;;;42.22;23.80;;;6.30;99.90;;;;;;4997695;28;20037;-87
2022/03/03 09:46:23;;;;;;;41.08;23.45;;;6.30;99.90;;;;;;4997765;28;20066;-90
2022/03/03 09:48:48;;;;;;;41.25;23.63;;;6.40;99.90;;;;;;4997534;28;20037;-89
2022/03/03 09:51:14;;;;;;;37.78;22.42;;;6.50;99.90;;;;;;4997977;28;20084;-88
2022/03/03 09:53:40;;;;;;;53.03;26.30;;;6.70;99.90;;;;;;4998085;28;20049;-93
2022/03/03 09:56:07;;;;;;;38.33;23.52;;;6.70;99.90;;;;;;4998272;28;20405;-94
2022/03/03 09:58:33;;;;;;;42.30;23.67;;;6.70;99.90;;;;;;4998509;28;20046;-92
2022/03/03 10:00:59;;;;;;;38.75;22.92;;;6.80;99.90;;;;;;4998353;28;20049;-95
2022/03/03 10:03:32;;;;;;;36.85;21.42;;;6.90;99.90;;;;;;4998574;28;20050;-95
2022/03/03 10:06:00;;;;;;;35.35;21.75;;;7.00;99.90;;;;;;4998030;28;20038;-94
2022/03/03 10:08:28;;;;;;;36.10;20.77;;;7.10;99.90;;;;;;4998281;28;20089;-93
2022/03/03 10:11:00;;;;;;;35.70;20.85;;;7.30;99.90;;;;;;4997109;28;20050;-87
2022/03/03 10:13:27;;;;;;;33.85;20.90;;;7.30;99.90;;;;;;4996466;28;20111;-87
2022/03/03 10:16:01;;;;;;;29.95;18.10;;;7.40;99.90;;;;;;4996836;28;20057;-87
2022/03/03 10:18:27;;;;;;;29.35;19.75;;;7.60;99.90;;;;;;4997823;28;20054;-87
2022/03/03 10:20:58;;;;;;;31.45;19.45;;;7.60;99.90;;;;;;4997389;28;20057;-87
2022/03/03 10:23:33;;;;;;;31.48;19.45;;;7.80;99.90;;;;;;4996767;28;20081;-86
2022/03/03 10:26:00;;;;;;;28.13;18.05;;;7.90;99.90;;;;;;4997250;28;20056;-87
2022/03/03 10:28:30;;;;;;;30.77;19.50;;;8.00;99.90;;;;;;4997762;28;20057;-84
2022/03/03 10:30:58;;;;;;;28.65;19.25;;;8.20;99.90;;;;;;4997119;28;20497;-88
2022/03/03 10:33:26;;;;;;;30.00;17.83;;;8.20;99.90;;;;;;4997356;28;20041;-88
2022/03/03 10:36:01;;;;;;;31.23;19.20;;;8.20;99.90;;;;;;4997351;28;20052;-88
2022/03/03 10:38:27;;;;;;;28.48;18.52;;;8.20;99.90;;;;;;4997032;28;20497;-86
2022/03/03 10:40:53;;;;;;;27.80;17.92;;;8.20;99.90;;;;;;4997171;28;20041;-89
2022/03/03 10:43:19;;;;;;;27.38;17.42;;;8.30;99.90;;;;;;4996888;28;20049;-88
2022/03/03 10:46:00;;;;;;;27.00;18.20;;;8.40;99.90;;;;;;4996094;28;20137;-89
2022/03/03 10:48:27;;;;;;;27.75;18.48;;;8.60;99.90;;;;;;4996435;28;20058;-88
2022/03/03 10:50:54;;;;;;;27.60;18.13;;;8.70;99.90;;;;;;4995904;28;20041;-88
2022/03/03 10:53:22;;;;;;;28.65;16.58;;;8.70;99.90;;;;;;4995960;28;20129;-89
2022/03/03 10:56:06;;;;;;;27.27;18.40;;;8.80;99.90;;;;;;4996143;28;20042;-95
2022/03/03 10:58:47;;;;;;;24.98;16.67;;;8.80;99.90;;;;;;4996100;28;20072;-87
2022/03/03 11:01:13;;;;;;;29.17;18.23;;;8.80;99.90;;;;;;4996098;28;20077;-89
2022/03/03 11:03:40;;;;;;;27.20;18.77;;;8.80;99.90;;;;;;4996441;28;20054;-86
2022/03/03 11:06:09;;;;;;;26.40;19.40;;;8.90;99.90;;;;;;4995975;28;20041;-85
2022/03/03 11:08:35;;;;;;;24.95;16.17;;;9.00;99.90;;;;;;4995824;28;20044;-86
2022/03/03 11:11:03;;;;;;;26.23;16.30;;;9.00;99.90;;;;;;4995618;28;20413;-86
2022/03/03 11:13:29;;;;;;;25.20;16.80;;;9.10;99.90;;;;;;4995706;28;20493;-86
2022/03/03 11:15:55;;;;;;;26.83;18.05;;;9.20;99.90;;;;;;4995698;28;20053;-85
2022/03/03 11:18:21;;;;;;;28.15;18.20;;;9.10;99.90;;;;;;4995870;28;20103;-86
2022/03/03 11:20:48;;;;;;;27.45;17.25;;;9.30;99.90;;;;;;4995749;28;20049;-86
2022/03/03 11:23:14;;;;;;;27.85;17.45;;;9.40;99.90;;;;;;4995748;28;20050;-86
2022/03/03 11:25:41;;;;;;;28.40;16.85;;;9.40;99.90;;;;;;4995740;28;20452;-85
2022/03/03 11:28:09;;;;;;;26.75;16.65;;;9.20;99.90;;;;;;4995437;28;20046;-87
2022/03/03 11:30:35;;;;;;;26.13;17.17;;;9.30;99.90;;;;;;4995245;28;20165;-85
2022/03/03 11:33:21;;;;;;;24.63;16.98;;;9.40;99.90;;;;;;4995454;28;20038;-86
2022/03/03 11:35:52;;;;;;;24.00;16.98;;;9.50;99.90;;;;;;4995342;28;20085;-87
2022/03/03 11:38:18;;;;;;;25.20;17.40;;;9.60;99.90;;;;;;4995313;28;20133;-87
2022/03/03 11:40:59;;;;;;;25.88;17.38;;;9.60;99.90;;;;;;4995206;28;20092;-86
2022/03/03 11:43:27;;;;;;;40.15;26.45;;;9.60;99.90;;;;;;4995472;28;20481;-86
2022/03/03 11:45:59;;;;;;;40.83;26.05;;;8.90;99.90;;;;;;4952720;28;1242290;-86
2022/03/03 11:48:38;;;;;;;40.35;26.80;;;8.70;99.90;;;;;;4995949;28;20065;-85
2022/03/03 11:51:35;;;;;;;42.33;26.98;;;8.90;99.90;;;;;;4995797;28;20488;-90
2022/03/03 11:54:09;;;;;;;41.45;26.20;;;8.70;99.90;;;;;;4996097;28;20042;-87
2022/03/03 11:56:35;;;;;;;40.78;23.45;;;8.80;99.90;;;;;;4995999;28;20494;-88
2022/03/03 11:59:19;;;;;;;38.30;25.08;;;9.00;99.90;;;;;;4995741;28;20457;-87
2022/03/03 12:01:55;;;;;;;27.63;18.17;;;9.10;99.90;;;;;;4995964;28;20054;-87
2022/03/03 12:04:25;;;;;;;26.67;19.27;;;9.30;99.90;;;;;;4996133;28;20037;-87
2022/03/03 12:06:53;;;;;;;28.27;18.73;;;9.20;99.90;;;;;;4996085;28;20054;-87
2022/03/03 12:09:28;;;;;;;24.48;16.50;;;9.30;99.90;;;;;;4995802;28;20045;-87
2022/03/03 12:12:16;;;;;;;28.38;17.52;;;9.20;99.90;;;;;;4995687;28;20054;-86
2022/03/03 12:14:52;;;;;;;26.70;18.42;;;9.30;99.90;;;;;;4995916;28;20057;-87
2022/03/03 12:17:38;;;;;;;27.05;18.60;;;9.50;99.90;;;;;;4995873;28;20073;-86
2022/03/03 12:20:33;;;;;;;25.55;17.77;;;9.50;99.90;;;;;;4995615;28;20054;-86
2022/03/03 12:23:11;;;;;;;29.15;19.58;;;9.60;99.90;;;;;;4995800;28;20049;-87
2022/03/03 12:25:54;;;;;;;32.97;19.98;;;9.40;99.90;;;;;;4995562;28;20117;-86
2022/03/03 12:28:21;;;;;;;;;;;9.30;99.90;;;;;;4995969;28;20046;-87
2022/03/03 12:30:49;;;;;;;32.08;19.85;;;9.40;99.90;;;;;;4995522;28;19928;-87
2022/03/03 12:33:26;;;;;;;27.05;18.60;;;9.50;99.90;;;;;;4995472;28;20045;-87
2022/03/03 12:36:06;;;;;;;32.63;19.77;;;9.60;99.90;;;;;;4995594;28;20129;-86
2022/03/03 12:38:36;;;;;;;31.38;21.02;;;9.60;99.90;;;;;;4995659;28;20572;-86
2022/03/03 12:41:03;;;;;;;32.35;21.10;;;9.70;99.90;;;;;;4995487;28;20042;-87
2022/03/03 12:43:40;;;;;;;32.65;20.45;;;9.80;99.90;;;;;;4995602;28;20042;-87
2022/03/03 12:46:06;;;;;;;32.40;19.85;;;9.50;99.90;;;;;;4995562;28;20053;-86